sensor_id;sensor_type;location;lat;lon;timestamp;P1;durP1;ratioP1;P2;durP2;ratioP2
10900;SDS011;5503;53.208;10.392;2023-04-24T00:01:09;4.93;;;2.50;;
10900;SDS011;5503;53.208;10.392;2023-04-24T00:03:38;5.32;;;2.50;;
10900;SDS011;5503;53.208;10.392;2023-04-24T00:06:05;6.00;;;2.80;;
10900;SDS011;5503;53.208;10.392;2023-04-24T00:08:33;4.68;;;2.47;;
10900;SDS011;5503;53.208;10.392;2023-04-24T00:11:01;5.13;;;2.83;;
10900;SDS011;5503;53.208;10.392;2023-04-24T00:13:29;4.63;;;2.38;;
10900;SDS011;5503;53.208;10.392;2023-04-24T00:15:56;5.00;;;2.45;;
10900;SDS011;5503;53.208;10.392;2023-04-24T00:18:24;4.93;;;2.60;;
10900;SDS011;5503;53.208;10.392;2023-04-24T00:20:51;5.18;;;2.53;;
10900;SDS011;5503;53.208;10.392;2023-04-24T00:23:18;5.37;;;2.77;;
10900;SDS011;5503;53.208;10.392;2023-04-24T00:25:46;5.05;;;2.95;;
10900;SDS011;5503;53.208;10.392;2023-04-24T00:28:13;4.80;;;2.80;;
10900;SDS011;5503;53.208;10.392;2023-04-24T00:30:41;5.57;;;2.63;;
10900;SDS011;5503;53.208;10.392;2023-04-24T00:33:08;4.90;;;2.53;;
10900;SDS011;5503;53.208;10.392;2023-04-24T00:35:36;5.00;;;2.83;;
10900;SDS011;5503;53.208;10.392;2023-04-24T00:38:03;4.80;;;2.40;;
10900;SDS011;5503;53.208;10.392;2023-04-24T00:40:30;5.15;;;2.92;;
10900;SDS011;5503;53.208;10.392;2023-04-24T00:42:58;4.72;;;2.38;;
10900;SDS011;5503;53.208;10.392;2023-04-24T00:45:25;4.53;;;2.47;;
10900;SDS011;5503;53.208;10.392;2023-04-24T00:47:57;5.10;;;2.33;;
10900;SDS011;5503;53.208;10.392;2023-04-24T00:50:25;5.25;;;2.47;;
10900;SDS011;5503;53.208;10.392;2023-04-24T00:52:52;4.85;;;2.53;;
10900;SDS011;5503;53.208;10.392;2023-04-24T00:55:20;5.28;;;2.42;;
10900;SDS011;5503;53.208;10.392;2023-04-24T00:57:47;4.35;;;2.05;;
10900;SDS011;5503;53.208;10.392;2023-04-24T01:00:16;4.70;;;2.23;;
10900;SDS011;5503;53.208;10.392;2023-04-24T01:02:44;4.97;;;2.30;;
10900;SDS011;5503;53.208;10.392;2023-04-24T01:05:13;5.05;;;2.60;;
10900;SDS011;5503;53.208;10.392;2023-04-24T01:07:43;4.63;;;2.13;;
10900;SDS011;5503;53.208;10.392;2023-04-24T01:10:11;4.93;;;2.70;;
10900;SDS011;5503;53.208;10.392;2023-04-24T01:12:39;5.57;;;2.77;;
10900;SDS011;5503;53.208;10.392;2023-04-24T01:15:07;4.55;;;1.98;;
10900;SDS011;5503;53.208;10.392;2023-04-24T01:17:35;5.43;;;2.50;;
10900;SDS011;5503;53.208;10.392;2023-04-24T01:20:04;5.47;;;2.80;;
10900;SDS011;5503;53.208;10.392;2023-04-24T01:22:33;4.43;;;2.45;;
10900;SDS011;5503;53.208;10.392;2023-04-24T01:25:01;4.27;;;1.90;;
10900;SDS011;5503;53.208;10.392;2023-04-24T01:27:28;4.10;;;1.92;;
10900;SDS011;5503;53.208;10.392;2023-04-24T01:29:56;4.50;;;2.10;;
10900;SDS011;5503;53.208;10.392;2023-04-24T01:32:23;3.78;;;1.95;;
10900;SDS011;5503;53.208;10.392;2023-04-24T01:34:50;4.10;;;2.00;;
10900;SDS011;5503;53.208;10.392;2023-04-24T01:37:18;3.70;;;1.60;;
10900;SDS011;5503;53.208;10.392;2023-04-24T01:39:47;3.20;;;1.48;;
10900;SDS011;5503;53.208;10.392;2023-04-24T01:42:14;3.63;;;1.85;;
10900;SDS011;5503;53.208;10.392;2023-04-24T01:44:41;3.55;;;1.80;;
10900;SDS011;5503;53.208;10.392;2023-04-24T01:47:08;4.03;;;1.90;;
10900;SDS011;5503;53.208;10.392;2023-04-24T01:49:36;3.17;;;1.50;;
10900;SDS011;5503;53.208;10.392;2023-04-24T01:52:04;3.30;;;1.50;;
10900;SDS011;5503;53.208;10.392;2023-04-24T01:54:32;5.30;;;1.98;;
10900;SDS011;5503;53.208;10.392;2023-04-24T01:57:00;3.35;;;1.63;;
10900;SDS011;5503;53.208;10.392;2023-04-24T01:59:28;3.83;;;1.63;;
10900;SDS011;5503;53.208;10.392;2023-04-24T02:01:55;3.93;;;1.57;;
10900;SDS011;5503;53.208;10.392;2023-04-24T02:04:22;3.95;;;1.80;;
10900;SDS011;5503;53.208;10.392;2023-04-24T02:06:50;4.25;;;1.40;;
10900;SDS011;5503;53.208;10.392;2023-04-24T02:09:17;4.10;;;1.50;;
10900;SDS011;5503;53.208;10.392;2023-04-24T02:11:44;3.45;;;1.70;;
10900;SDS011;5503;53.208;10.392;2023-04-24T02:14:13;3.00;;;1.30;;
10900;SDS011;5503;53.208;10.392;2023-04-24T02:16:40;3.20;;;1.45;;
10900;SDS011;5503;53.208;10.392;2023-04-24T02:19:07;3.40;;;1.70;;
10900;SDS011;5503;53.208;10.392;2023-04-24T02:21:34;3.30;;;1.45;;
10900;SDS011;5503;53.208;10.392;2023-04-24T02:24:01;4.25;;;1.90;;
10900;SDS011;5503;53.208;10.392;2023-04-24T02:26:29;5.00;;;1.60;;
10900;SDS011;5503;53.208;10.392;2023-04-24T02:28:56;3.55;;;1.60;;
10900;SDS011;5503;53.208;10.392;2023-04-24T02:31:25;4.15;;;1.65;;
10900;SDS011;5503;53.208;10.392;2023-04-24T02:33:52;3.45;;;1.50;;
10900;SDS011;5503;53.208;10.392;2023-04-24T02:36:19;3.67;;;1.50;;
10900;SDS011;5503;53.208;10.392;2023-04-24T02:38:46;3.40;;;1.60;;
10900;SDS011;5503;53.208;10.392;2023-04-24T02:41:13;4.47;;;1.67;;
10900;SDS011;5503;53.208;10.392;2023-04-24T02:43:41;3.40;;;1.65;;
10900;SDS011;5503;53.208;10.392;2023-04-24T02:46:08;3.20;;;1.58;;
10900;SDS011;5503;53.208;10.392;2023-04-24T02:48:36;3.20;;;1.50;;
10900;SDS011;5503;53.208;10.392;2023-04-24T02:51:03;3.97;;;1.53;;
10900;SDS011;5503;53.208;10.392;2023-04-24T02:53:31;3.30;;;1.63;;
10900;SDS011;5503;53.208;10.392;2023-04-24T02:55:59;3.20;;;1.52;;
10900;SDS011;5503;53.208;10.392;2023-04-24T02:58:26;3.20;;;1.50;;
10900;SDS011;5503;53.208;10.392;2023-04-24T03:00:53;4.28;;;1.60;;
10900;SDS011;5503;53.208;10.392;2023-04-24T03:03:21;3.20;;;1.40;;
10900;SDS011;5503;53.208;10.392;2023-04-24T03:05:50;3.30;;;1.50;;
10900;SDS011;5503;53.208;10.392;2023-04-24T03:08:17;3.42;;;1.65;;
10900;SDS011;5503;53.208;10.392;2023-04-24T03:10:44;3.38;;;1.40;;
10900;SDS011;5503;53.208;10.392;2023-04-24T03:13:11;3.33;;;1.58;;
10900;SDS011;5503;53.208;10.392;2023-04-24T03:15:38;3.17;;;1.50;;
10900;SDS011;5503;53.208;10.392;2023-04-24T03:18:06;3.58;;;1.25;;
10900;SDS011;5503;53.208;10.392;2023-04-24T03:20:33;3.50;;;1.60;;
10900;SDS011;5503;53.208;10.392;2023-04-24T03:23:03;2.83;;;1.20;;
10900;SDS011;5503;53.208;10.392;2023-04-24T03:25:32;3.17;;;1.50;;
10900;SDS011;5503;53.208;10.392;2023-04-24T03:27:59;3.70;;;1.70;;
10900;SDS011;5503;53.208;10.392;2023-04-24T03:30:26;2.85;;;1.20;;
10900;SDS011;5503;53.208;10.392;2023-04-24T03:32:53;3.05;;;1.27;;
10900;SDS011;5503;53.208;10.392;2023-04-24T03:35:24;3.38;;;1.60;;
10900;SDS011;5503;53.208;10.392;2023-04-24T03:37:51;3.97;;;1.70;;
10900;SDS011;5503;53.208;10.392;2023-04-24T03:40:19;3.57;;;1.20;;
10900;SDS011;5503;53.208;10.392;2023-04-24T03:42:47;4.47;;;1.58;;
10900;SDS011;5503;53.208;10.392;2023-04-24T03:45:14;3.45;;;1.60;;
10900;SDS011;5503;53.208;10.392;2023-04-24T03:47:41;3.10;;;1.42;;
10900;SDS011;5503;53.208;10.392;2023-04-24T03:50:09;3.22;;;1.55;;
10900;SDS011;5503;53.208;10.392;2023-04-24T03:52:36;3.00;;;1.40;;
10900;SDS011;5503;53.208;10.392;2023-04-24T03:55:03;3.03;;;1.27;;
10900;SDS011;5503;53.208;10.392;2023-04-24T03:57:32;3.20;;;1.60;;
10900;SDS011;5503;53.208;10.392;2023-04-24T03:59:59;3.13;;;1.40;;
10900;SDS011;5503;53.208;10.392;2023-04-24T04:02:29;3.00;;;1.35;;
10900;SDS011;5503;53.208;10.392;2023-04-24T04:04:57;2.90;;;1.33;;
10900;SDS011;5503;53.208;10.392;2023-04-24T04:07:24;3.08;;;1.48;;
10900;SDS011;5503;53.208;10.392;2023-04-24T04:09:51;3.00;;;1.40;;
10900;SDS011;5503;53.208;10.392;2023-04-24T04:12:18;4.60;;;1.23;;
10900;SDS011;5503;53.208;10.392;2023-04-24T04:14:47;2.92;;;1.25;;
10900;SDS011;5503;53.208;10.392;2023-04-24T04:17:14;3.13;;;1.33;;
10900;SDS011;5503;53.208;10.392;2023-04-24T04:19:41;3.00;;;1.38;;
10900;SDS011;5503;53.208;10.392;2023-04-24T04:22:08;3.30;;;1.50;;
10900;SDS011;5503;53.208;10.392;2023-04-24T04:24:35;3.00;;;1.30;;
10900;SDS011;5503;53.208;10.392;2023-04-24T04:27:05;2.90;;;1.35;;
10900;SDS011;5503;53.208;10.392;2023-04-24T04:29:33;2.70;;;1.00;;
10900;SDS011;5503;53.208;10.392;2023-04-24T04:32:02;3.35;;;1.60;;
10900;SDS011;5503;53.208;10.392;2023-04-24T04:34:29;3.30;;;1.50;;
10900;SDS011;5503;53.208;10.392;2023-04-24T04:36:56;3.22;;;1.20;;
10900;SDS011;5503;53.208;10.392;2023-04-24T04:39:26;3.00;;;1.40;;
10900;SDS011;5503;53.208;10.392;2023-04-24T04:41:54;2.90;;;1.20;;
10900;SDS011;5503;53.208;10.392;2023-04-24T04:44:22;3.40;;;1.40;;
10900;SDS011;5503;53.208;10.392;2023-04-24T04:46:49;2.90;;;1.13;;
10900;SDS011;5503;53.208;10.392;2023-04-24T04:49:19;4.88;;;1.83;;
10900;SDS011;5503;53.208;10.392;2023-04-24T04:51:46;3.10;;;1.20;;
10900;SDS011;5503;53.208;10.392;2023-04-24T04:54:13;3.27;;;1.30;;
10900;SDS011;5503;53.208;10.392;2023-04-24T04:56:41;2.70;;;1.10;;
10900;SDS011;5503;53.208;10.392;2023-04-24T04:59:08;2.85;;;1.20;;
10900;SDS011;5503;53.208;10.392;2023-04-24T05:01:36;2.88;;;1.20;;
10900;SDS011;5503;53.208;10.392;2023-04-24T05:04:03;3.10;;;1.30;;
10900;SDS011;5503;53.208;10.392;2023-04-24T05:06:32;6.47;;;1.40;;
10900;SDS011;5503;53.208;10.392;2023-04-24T05:08:59;3.83;;;1.40;;
10900;SDS011;5503;53.208;10.392;2023-04-24T05:11:26;3.78;;;1.60;;
10900;SDS011;5503;53.208;10.392;2023-04-24T05:13:53;3.10;;;1.35;;
10900;SDS011;5503;53.208;10.392;2023-04-24T05:16:20;3.20;;;1.30;;
10900;SDS011;5503;53.208;10.392;2023-04-24T05:18:47;3.05;;;1.30;;
10900;SDS011;5503;53.208;10.392;2023-04-24T05:21:15;3.38;;;1.40;;
10900;SDS011;5503;53.208;10.392;2023-04-24T05:23:43;3.50;;;1.60;;
10900;SDS011;5503;53.208;10.392;2023-04-24T05:26:10;3.22;;;1.30;;
10900;SDS011;5503;53.208;10.392;2023-04-24T05:28:37;3.28;;;1.40;;
10900;SDS011;5503;53.208;10.392;2023-04-24T05:31:05;3.30;;;1.53;;
10900;SDS011;5503;53.208;10.392;2023-04-24T05:33:34;3.10;;;1.50;;
10900;SDS011;5503;53.208;10.392;2023-04-24T05:36:01;3.45;;;1.35;;
10900;SDS011;5503;53.208;10.392;2023-04-24T05:38:28;2.90;;;1.20;;
10900;SDS011;5503;53.208;10.392;2023-04-24T05:40:57;3.38;;;1.65;;
10900;SDS011;5503;53.208;10.392;2023-04-24T05:43:26;3.10;;;1.30;;
10900;SDS011;5503;53.208;10.392;2023-04-24T05:45:54;3.10;;;1.30;;
10900;SDS011;5503;53.208;10.392;2023-04-24T05:48:21;3.83;;;1.50;;
10900;SDS011;5503;53.208;10.392;2023-04-24T05:50:48;3.10;;;1.50;;
10900;SDS011;5503;53.208;10.392;2023-04-24T05:53:15;3.00;;;1.45;;
10900;SDS011;5503;53.208;10.392;2023-04-24T05:55:43;3.30;;;1.67;;
10900;SDS011;5503;53.208;10.392;2023-04-24T05:58:11;3.25;;;1.52;;
10900;SDS011;5503;53.208;10.392;2023-04-24T06:00:39;3.05;;;1.40;;
10900;SDS011;5503;53.208;10.392;2023-04-24T06:03:09;3.72;;;1.92;;
10900;SDS011;5503;53.208;10.392;2023-04-24T06:05:36;2.90;;;1.35;;
10900;SDS011;5503;53.208;10.392;2023-04-24T06:08:04;2.97;;;1.23;;
10900;SDS011;5503;53.208;10.392;2023-04-24T06:10:31;3.10;;;1.27;;
10900;SDS011;5503;53.208;10.392;2023-04-24T06:12:58;3.10;;;1.30;;
10900;SDS011;5503;53.208;10.392;2023-04-24T06:15:28;3.10;;;1.30;;
10900;SDS011;5503;53.208;10.392;2023-04-24T06:17:56;3.10;;;1.40;;
10900;SDS011;5503;53.208;10.392;2023-04-24T06:20:23;3.00;;;1.33;;
10900;SDS011;5503;53.208;10.392;2023-04-24T06:22:51;3.40;;;1.30;;
10900;SDS011;5503;53.208;10.392;2023-04-24T06:25:18;3.17;;;1.42;;
10900;SDS011;5503;53.208;10.392;2023-04-24T06:27:46;3.22;;;1.50;;
10900;SDS011;5503;53.208;10.392;2023-04-24T06:30:13;3.00;;;1.40;;
10900;SDS011;5503;53.208;10.392;2023-04-24T06:32:42;3.03;;;1.17;;
10900;SDS011;5503;53.208;10.392;2023-04-24T06:35:08;2.95;;;1.27;;
10900;SDS011;5503;53.208;10.392;2023-04-24T06:37:37;3.25;;;1.50;;
10900;SDS011;5503;53.208;10.392;2023-04-24T06:40:05;3.33;;;1.50;;
10900;SDS011;5503;53.208;10.392;2023-04-24T06:42:33;3.25;;;1.45;;
10900;SDS011;5503;53.208;10.392;2023-04-24T06:45:01;2.90;;;1.10;;
10900;SDS011;5503;53.208;10.392;2023-04-24T06:47:28;3.33;;;1.40;;
10900;SDS011;5503;53.208;10.392;2023-04-24T06:49:56;3.17;;;1.50;;
10900;SDS011;5503;53.208;10.392;2023-04-24T06:52:26;2.70;;;1.00;;
10900;SDS011;5503;53.208;10.392;2023-04-24T06:54:59;3.10;;;1.45;;
10900;SDS011;5503;53.208;10.392;2023-04-24T06:57:26;2.90;;;1.30;;
10900;SDS011;5503;53.208;10.392;2023-04-24T06:59:54;3.00;;;1.23;;
10900;SDS011;5503;53.208;10.392;2023-04-24T07:02:21;3.20;;;1.23;;
10900;SDS011;5503;53.208;10.392;2023-04-24T07:04:48;2.97;;;1.38;;
10900;SDS011;5503;53.208;10.392;2023-04-24T07:07:18;2.92;;;1.30;;
10900;SDS011;5503;53.208;10.392;2023-04-24T07:09:46;3.03;;;1.20;;
10900;SDS011;5503;53.208;10.392;2023-04-24T07:12:13;2.95;;;1.20;;
10900;SDS011;5503;53.208;10.392;2023-04-24T07:14:42;3.20;;;1.50;;
10900;SDS011;5503;53.208;10.392;2023-04-24T07:17:09;2.90;;;1.20;;
10900;SDS011;5503;53.208;10.392;2023-04-24T07:19:38;3.50;;;1.60;;
10900;SDS011;5503;53.208;10.392;2023-04-24T07:22:05;3.47;;;1.40;;
10900;SDS011;5503;53.208;10.392;2023-04-24T07:24:34;3.05;;;1.40;;
10900;SDS011;5503;53.208;10.392;2023-04-24T07:27:01;3.10;;;1.40;;
10900;SDS011;5503;53.208;10.392;2023-04-24T07:29:28;3.00;;;1.25;;
10900;SDS011;5503;53.208;10.392;2023-04-24T07:31:55;2.97;;;1.20;;
10900;SDS011;5503;53.208;10.392;2023-04-24T07:34:22;2.70;;;1.03;;
10900;SDS011;5503;53.208;10.392;2023-04-24T07:36:49;2.85;;;1.17;;
10900;SDS011;5503;53.208;10.392;2023-04-24T07:39:17;3.00;;;1.33;;
10900;SDS011;5503;53.208;10.392;2023-04-24T07:41:46;3.35;;;1.27;;
10900;SDS011;5503;53.208;10.392;2023-04-24T07:44:13;3.38;;;1.45;;
10900;SDS011;5503;53.208;10.392;2023-04-24T07:46:42;3.13;;;1.30;;
10900;SDS011;5503;53.208;10.392;2023-04-24T07:49:10;3.35;;;1.38;;
10900;SDS011;5503;53.208;10.392;2023-04-24T07:51:37;3.13;;;1.23;;
10900;SDS011;5503;53.208;10.392;2023-04-24T07:54:04;3.03;;;1.35;;
10900;SDS011;5503;53.208;10.392;2023-04-24T07:56:31;3.20;;;1.30;;
10900;SDS011;5503;53.208;10.392;2023-04-24T07:59:01;3.30;;;1.40;;
10900;SDS011;5503;53.208;10.392;2023-04-24T08:01:28;3.75;;;1.40;;
10900;SDS011;5503;53.208;10.392;2023-04-24T08:03:55;3.03;;;1.17;;
10900;SDS011;5503;53.208;10.392;2023-04-24T08:06:22;3.33;;;1.30;;
10900;SDS011;5503;53.208;10.392;2023-04-24T08:08:52;3.40;;;1.45;;
10900;SDS011;5503;53.208;10.392;2023-04-24T08:11:20;3.10;;;1.30;;
10900;SDS011;5503;53.208;10.392;2023-04-24T08:13:47;4.53;;;1.45;;
10900;SDS011;5503;53.208;10.392;2023-04-24T08:16:15;3.00;;;1.20;;
10900;SDS011;5503;53.208;10.392;2023-04-24T08:18:43;3.40;;;1.35;;
10900;SDS011;5503;53.208;10.392;2023-04-24T08:21:10;3.50;;;1.30;;
10900;SDS011;5503;53.208;10.392;2023-04-24T08:23:42;3.30;;;1.20;;
10900;SDS011;5503;53.208;10.392;2023-04-24T08:26:09;3.20;;;1.13;;
10900;SDS011;5503;53.208;10.392;2023-04-24T08:28:36;3.30;;;1.27;;
10900;SDS011;5503;53.208;10.392;2023-04-24T08:31:04;3.13;;;1.30;;
10900;SDS011;5503;53.208;10.392;2023-04-24T08:33:32;4.10;;;1.42;;
10900;SDS011;5503;53.208;10.392;2023-04-24T08:36:00;3.73;;;1.40;;
10900;SDS011;5503;53.208;10.392;2023-04-24T08:38:27;3.40;;;1.30;;
10900;SDS011;5503;53.208;10.392;2023-04-24T08:40:54;3.80;;;1.50;;
10900;SDS011;5503;53.208;10.392;2023-04-24T08:43:22;3.67;;;1.35;;
10900;SDS011;5503;53.208;10.392;2023-04-24T08:45:49;3.28;;;1.40;;
10900;SDS011;5503;53.208;10.392;2023-04-24T08:48:16;3.67;;;1.50;;
10900;SDS011;5503;53.208;10.392;2023-04-24T08:50:47;4.28;;;1.70;;
10900;SDS011;5503;53.208;10.392;2023-04-24T08:53:16;3.70;;;1.60;;
10900;SDS011;5503;53.208;10.392;2023-04-24T08:55:45;3.85;;;1.75;;
10900;SDS011;5503;53.208;10.392;2023-04-24T08:58:13;4.25;;;1.70;;
10900;SDS011;5503;53.208;10.392;2023-04-24T09:00:43;4.70;;;2.07;;
10900;SDS011;5503;53.208;10.392;2023-04-24T09:03:13;4.10;;;1.70;;
10900;SDS011;5503;53.208;10.392;2023-04-24T09:05:41;4.03;;;1.65;;
10900;SDS011;5503;53.208;10.392;2023-04-24T09:08:12;4.20;;;2.15;;
10900;SDS011;5503;53.208;10.392;2023-04-24T09:10:39;4.00;;;2.03;;
10900;SDS011;5503;53.208;10.392;2023-04-24T09:13:07;4.70;;;2.10;;
10900;SDS011;5503;53.208;10.392;2023-04-24T09:15:39;5.38;;;2.15;;
10900;SDS011;5503;53.208;10.392;2023-04-24T09:18:06;5.95;;;2.50;;
10900;SDS011;5503;53.208;10.392;2023-04-24T09:20:35;6.65;;;2.40;;
10900;SDS011;5503;53.208;10.392;2023-04-24T09:23:31;5.00;;;2.33;;
10900;SDS011;5503;53.208;10.392;2023-04-24T09:25:58;5.10;;;2.47;;
10900;SDS011;5503;53.208;10.392;2023-04-24T09:28:28;6.93;;;2.70;;
10900;SDS011;5503;53.208;10.392;2023-04-24T09:31:03;5.80;;;2.65;;
10900;SDS011;5503;53.208;10.392;2023-04-24T09:33:31;4.60;;;1.90;;
10900;SDS011;5503;53.208;10.392;2023-04-24T09:35:59;5.88;;;2.60;;
10900;SDS011;5503;53.208;10.392;2023-04-24T09:38:32;5.77;;;2.33;;
10900;SDS011;5503;53.208;10.392;2023-04-24T09:41:00;5.50;;;2.47;;
10900;SDS011;5503;53.208;10.392;2023-04-24T09:43:28;5.03;;;2.30;;
10900;SDS011;5503;53.208;10.392;2023-04-24T09:45:56;5.68;;;2.30;;
10900;SDS011;5503;53.208;10.392;2023-04-24T09:48:30;4.32;;;2.08;;
10900;SDS011;5503;53.208;10.392;2023-04-24T09:50:58;4.73;;;2.17;;
10900;SDS011;5503;53.208;10.392;2023-04-24T09:53:28;4.65;;;2.35;;
10900;SDS011;5503;53.208;10.392;2023-04-24T09:55:56;5.03;;;2.75;;
10900;SDS011;5503;53.208;10.392;2023-04-24T09:58:29;5.38;;;2.60;;
10900;SDS011;5503;53.208;10.392;2023-04-24T10:00:56;4.45;;;2.20;;
10900;SDS011;5503;53.208;10.392;2023-04-24T10:03:24;4.63;;;2.73;;
10900;SDS011;5503;53.208;10.392;2023-04-24T10:05:54;5.30;;;2.53;;
10900;SDS011;5503;53.208;10.392;2023-04-24T10:08:24;6.30;;;2.80;;
10900;SDS011;5503;53.208;10.392;2023-04-24T10:10:52;6.20;;;2.70;;
10900;SDS011;5503;53.208;10.392;2023-04-24T10:13:21;5.63;;;2.70;;
10900;SDS011;5503;53.208;10.392;2023-04-24T10:15:48;5.13;;;2.73;;
10900;SDS011;5503;53.208;10.392;2023-04-24T10:18:16;6.63;;;3.13;;
10900;SDS011;5503;53.208;10.392;2023-04-24T10:20:43;9.50;;;3.15;;
10900;SDS011;5503;53.208;10.392;2023-04-24T10:23:11;5.85;;;2.92;;
10900;SDS011;5503;53.208;10.392;2023-04-24T10:25:38;5.63;;;2.72;;
10900;SDS011;5503;53.208;10.392;2023-04-24T10:28:05;6.17;;;3.10;;
10900;SDS011;5503;53.208;10.392;2023-04-24T10:30:34;5.78;;;2.58;;
10900;SDS011;5503;53.208;10.392;2023-04-24T10:33:02;5.78;;;2.85;;
10900;SDS011;5503;53.208;10.392;2023-04-24T10:35:35;5.85;;;3.17;;
10900;SDS011;5503;53.208;10.392;2023-04-24T10:38:05;5.22;;;2.60;;
10900;SDS011;5503;53.208;10.392;2023-04-24T10:40:35;5.83;;;2.60;;
10900;SDS011;5503;53.208;10.392;2023-04-24T10:43:02;5.43;;;2.80;;
10900;SDS011;5503;53.208;10.392;2023-04-24T10:45:31;5.35;;;2.30;;
10900;SDS011;5503;53.208;10.392;2023-04-24T10:48:01;5.60;;;2.78;;
10900;SDS011;5503;53.208;10.392;2023-04-24T10:50:30;5.95;;;3.10;;
10900;SDS011;5503;53.208;10.392;2023-04-24T10:53:12;5.93;;;2.90;;
10900;SDS011;5503;53.208;10.392;2023-04-24T10:55:43;5.68;;;2.58;;
10900;SDS011;5503;53.208;10.392;2023-04-24T10:58:12;5.38;;;2.63;;
10900;SDS011;5503;53.208;10.392;2023-04-24T11:00:41;5.32;;;2.80;;
10900;SDS011;5503;53.208;10.392;2023-04-24T11:03:23;5.68;;;3.15;;
10900;SDS011;5503;53.208;10.392;2023-04-24T11:05:53;5.53;;;2.47;;
10900;SDS011;5503;53.208;10.392;2023-04-24T11:08:26;5.03;;;2.67;;
10900;SDS011;5503;53.208;10.392;2023-04-24T11:11:03;4.95;;;2.60;;
10900;SDS011;5503;53.208;10.392;2023-04-24T11:16:31;4.50;;;2.13;;
10900;SDS011;5503;53.208;10.392;2023-04-24T11:19:02;5.10;;;2.20;;
10900;SDS011;5503;53.208;10.392;2023-04-24T11:21:31;4.65;;;2.10;;
10900;SDS011;5503;53.208;10.392;2023-04-24T11:23:58;4.63;;;2.40;;
10900;SDS011;5503;53.208;10.392;2023-04-24T11:26:53;5.13;;;1.90;;
10900;SDS011;5503;53.208;10.392;2023-04-24T11:29:22;5.30;;;2.30;;
10900;SDS011;5503;53.208;10.392;2023-04-24T11:31:49;3.70;;;1.90;;
10900;SDS011;5503;53.208;10.392;2023-04-24T11:34:18;4.07;;;2.00;;
10900;SDS011;5503;53.208;10.392;2023-04-24T11:36:45;6.93;;;1.92;;
10900;SDS011;5503;53.208;10.392;2023-04-24T11:39:13;5.43;;;1.83;;
10900;SDS011;5503;53.208;10.392;2023-04-24T11:41:40;4.72;;;2.75;;
10900;SDS011;5503;53.208;10.392;2023-04-24T11:44:08;3.80;;;1.63;;
10900;SDS011;5503;53.208;10.392;2023-04-24T11:46:36;4.70;;;2.35;;
10900;SDS011;5503;53.208;10.392;2023-04-24T11:49:05;4.65;;;2.50;;
10900;SDS011;5503;53.208;10.392;2023-04-24T11:51:33;4.32;;;2.20;;
10900;SDS011;5503;53.208;10.392;2023-04-24T11:54:00;4.65;;;2.35;;
10900;SDS011;5503;53.208;10.392;2023-04-24T11:56:28;5.97;;;2.50;;
10900;SDS011;5503;53.208;10.392;2023-04-24T11:58:55;4.53;;;1.95;;
10900;SDS011;5503;53.208;10.392;2023-04-24T12:01:23;5.15;;;2.40;;
10900;SDS011;5503;53.208;10.392;2023-04-24T12:03:50;4.97;;;2.45;;
10900;SDS011;5503;53.208;10.392;2023-04-24T12:06:18;4.68;;;2.20;;
10900;SDS011;5503;53.208;10.392;2023-04-24T12:08:47;4.57;;;2.23;;
10900;SDS011;5503;53.208;10.392;2023-04-24T12:11:15;5.00;;;2.50;;
10900;SDS011;5503;53.208;10.392;2023-04-24T12:13:43;3.92;;;1.80;;
10900;SDS011;5503;53.208;10.392;2023-04-24T12:16:11;5.22;;;3.05;;
10900;SDS011;5503;53.208;10.392;2023-04-24T12:18:42;4.50;;;2.28;;
10900;SDS011;5503;53.208;10.392;2023-04-24T12:21:20;5.07;;;2.37;;
10900;SDS011;5503;53.208;10.392;2023-04-24T12:23:54;4.75;;;2.40;;
10900;SDS011;5503;53.208;10.392;2023-04-24T12:26:21;4.50;;;2.30;;
10900;SDS011;5503;53.208;10.392;2023-04-24T12:28:49;6.18;;;2.25;;
10900;SDS011;5503;53.208;10.392;2023-04-24T12:31:16;4.70;;;2.22;;
10900;SDS011;5503;53.208;10.392;2023-04-24T12:33:44;4.93;;;2.13;;
10900;SDS011;5503;53.208;10.392;2023-04-24T12:36:11;4.20;;;2.10;;
10900;SDS011;5503;53.208;10.392;2023-04-24T12:38:38;4.50;;;2.00;;
10900;SDS011;5503;53.208;10.392;2023-04-24T12:41:11;4.45;;;2.00;;
10900;SDS011;5503;53.208;10.392;2023-04-24T12:43:50;4.18;;;1.92;;
10900;SDS011;5503;53.208;10.392;2023-04-24T12:46:17;4.07;;;2.07;;
10900;SDS011;5503;53.208;10.392;2023-04-24T12:48:44;7.55;;;2.30;;
10900;SDS011;5503;53.208;10.392;2023-04-24T12:51:11;5.35;;;1.90;;
10900;SDS011;5503;53.208;10.392;2023-04-24T12:53:39;4.63;;;2.30;;
10900;SDS011;5503;53.208;10.392;2023-04-24T12:56:06;4.25;;;1.90;;
10900;SDS011;5503;53.208;10.392;2023-04-24T12:58:34;4.53;;;2.03;;
10900;SDS011;5503;53.208;10.392;2023-04-24T13:01:01;4.40;;;1.85;;
10900;SDS011;5503;53.208;10.392;2023-04-24T13:03:29;3.90;;;2.00;;
10900;SDS011;5503;53.208;10.392;2023-04-24T13:05:56;3.60;;;1.70;;
10900;SDS011;5503;53.208;10.392;2023-04-24T13:08:23;3.80;;;2.00;;
10900;SDS011;5503;53.208;10.392;2023-04-24T13:10:50;3.57;;;1.63;;
10900;SDS011;5503;53.208;10.392;2023-04-24T13:13:19;4.28;;;2.10;;
10900;SDS011;5503;53.208;10.392;2023-04-24T13:15:47;3.50;;;1.70;;
10900;SDS011;5503;53.208;10.392;2023-04-24T13:18:14;3.85;;;1.70;;
10900;SDS011;5503;53.208;10.392;2023-04-24T13:20:47;4.10;;;1.92;;
10900;SDS011;5503;53.208;10.392;2023-04-24T13:23:14;3.97;;;1.73;;
10900;SDS011;5503;53.208;10.392;2023-04-24T13:25:42;3.30;;;1.48;;
10900;SDS011;5503;53.208;10.392;2023-04-24T13:28:09;3.60;;;1.50;;
10900;SDS011;5503;53.208;10.392;2023-04-24T13:30:36;3.75;;;2.00;;
10900;SDS011;5503;53.208;10.392;2023-04-24T13:33:05;3.38;;;1.48;;
10900;SDS011;5503;53.208;10.392;2023-04-24T13:35:32;4.23;;;1.67;;
10900;SDS011;5503;53.208;10.392;2023-04-24T13:37:59;3.60;;;1.70;;
10900;SDS011;5503;53.208;10.392;2023-04-24T13:40:30;3.60;;;1.70;;
10900;SDS011;5503;53.208;10.392;2023-04-24T13:42:57;3.33;;;1.40;;
10900;SDS011;5503;53.208;10.392;2023-04-24T13:45:25;3.75;;;1.60;;
10900;SDS011;5503;53.208;10.392;2023-04-24T13:47:52;3.47;;;1.47;;
10900;SDS011;5503;53.208;10.392;2023-04-24T13:50:21;3.22;;;1.50;;
10900;SDS011;5503;53.208;10.392;2023-04-24T13:52:48;3.95;;;1.70;;
10900;SDS011;5503;53.208;10.392;2023-04-24T13:55:16;3.80;;;1.63;;
10900;SDS011;5503;53.208;10.392;2023-04-24T13:57:43;4.10;;;2.00;;
10900;SDS011;5503;53.208;10.392;2023-04-24T14:00:10;3.57;;;1.50;;
10900;SDS011;5503;53.208;10.392;2023-04-24T14:02:38;3.95;;;1.70;;
10900;SDS011;5503;53.208;10.392;2023-04-24T14:05:05;4.60;;;2.10;;
10900;SDS011;5503;53.208;10.392;2023-04-24T14:07:34;4.00;;;1.77;;
10900;SDS011;5503;53.208;10.392;2023-04-24T14:10:01;3.67;;;1.52;;
10900;SDS011;5503;53.208;10.392;2023-04-24T14:12:28;3.67;;;1.70;;
10900;SDS011;5503;53.208;10.392;2023-04-24T14:14:55;3.58;;;1.75;;
10900;SDS011;5503;53.208;10.392;2023-04-24T14:17:23;3.90;;;1.75;;
10900;SDS011;5503;53.208;10.392;2023-04-24T14:19:50;3.40;;;1.50;;
10900;SDS011;5503;53.208;10.392;2023-04-24T14:22:21;3.60;;;1.63;;
10900;SDS011;5503;53.208;10.392;2023-04-24T14:24:49;3.37;;;1.50;;
10900;SDS011;5503;53.208;10.392;2023-04-24T14:27:16;3.65;;;1.63;;
10900;SDS011;5503;53.208;10.392;2023-04-24T14:29:43;3.85;;;1.70;;
10900;SDS011;5503;53.208;10.392;2023-04-24T14:32:10;3.58;;;1.52;;
10900;SDS011;5503;53.208;10.392;2023-04-24T14:34:40;3.50;;;1.70;;
10900;SDS011;5503;53.208;10.392;2023-04-24T14:37:07;3.77;;;1.47;;
10900;SDS011;5503;53.208;10.392;2023-04-24T14:39:34;3.38;;;1.50;;
10900;SDS011;5503;53.208;10.392;2023-04-24T14:42:03;3.30;;;1.50;;
10900;SDS011;5503;53.208;10.392;2023-04-24T14:44:29;3.05;;;1.35;;
10900;SDS011;5503;53.208;10.392;2023-04-24T14:46:58;2.67;;;0.88;;
10900;SDS011;5503;53.208;10.392;2023-04-24T14:49:25;2.73;;;1.00;;
10900;SDS011;5503;53.208;10.392;2023-04-24T14:51:52;2.90;;;1.20;;
10900;SDS011;5503;53.208;10.392;2023-04-24T14:54:19;2.70;;;1.15;;
10900;SDS011;5503;53.208;10.392;2023-04-24T14:56:48;2.58;;;0.90;;